createdAt,value
2019-05-13T00:00:18.486Z,10.00
2019-05-13T00:02:48.707Z,10.00
2019-05-13T00:05:19.087Z,10.00
2019-05-13T00:07:50.204Z,9.90
2019-05-13T00:10:20.576Z,9.90
2019-05-13T00:12:50.734Z,9.90
2019-05-13T00:15:21.126Z,9.90
2019-05-13T00:17:51.182Z,9.90
2019-05-13T00:20:21.447Z,9.90
2019-05-13T00:22:53.615Z,9.80
2019-05-13T00:25:24.173Z,9.80
2019-05-13T00:27:54.525Z,9.80
2019-05-13T00:30:24.754Z,9.80
2019-05-13T00:32:55.017Z,9.90
2019-05-13T00:35:25.362Z,9.90
2019-05-13T00:37:55.555Z,9.90
2019-05-13T00:40:25.754Z,9.90
2019-05-13T00:42:56.004Z,9.90
2019-05-13T00:45:26.303Z,9.90
2019-05-13T00:47:56.449Z,9.80
2019-05-13T00:50:26.701Z,9.80
2019-05-13T00:52:57.050Z,9.80
2019-05-13T00:55:27.310Z,9.80
2019-05-13T00:57:57.672Z,9.80
2019-05-13T01:00:27.749Z,9.80
2019-05-13T01:02:58.109Z,9.80
2019-05-13T01:05:28.287Z,9.80
2019-05-13T01:08:00.509Z,9.70
2019-05-13T01:10:31.471Z,9.70
2019-05-13T01:13:04.297Z,9.80
2019-05-13T01:15:34.340Z,9.70
2019-05-13T01:18:05.009Z,9.70
2019-05-13T01:20:35.165Z,9.70
2019-05-13T01:23:05.568Z,9.70
2019-05-13T01:25:35.927Z,9.60
2019-05-13T01:28:06.210Z,9.60
2019-05-13T01:30:36.482Z,9.70
2019-05-13T01:33:06.888Z,9.70
2019-05-13T01:35:37.018Z,9.70
2019-05-13T01:38:07.360Z,9.80
2019-05-13T01:40:37.520Z,9.80
2019-05-13T01:43:07.627Z,9.70
2019-05-13T01:45:37.776Z,9.70
2019-05-13T01:48:08.236Z,9.70
2019-05-13T01:50:38.664Z,9.70
2019-05-13T01:53:08.863Z,9.70
2019-05-13T01:55:40.135Z,9.70
2019-05-13T01:58:10.249Z,9.70
2019-05-13T02:00:40.369Z,9.70
2019-05-13T02:03:10.637Z,9.70
2019-05-13T02:05:40.917Z,9.70
2019-05-13T02:08:11.188Z,9.70
2019-05-13T02:10:54.928Z,9.70
2019-05-13T02:13:25.630Z,9.60
2019-05-13T02:15:56.325Z,9.60
2019-05-13T02:18:26.575Z,9.60
2019-05-13T02:20:58.375Z,9.60
2019-05-13T02:23:28.427Z,9.60
2019-05-13T02:25:58.631Z,9.60
2019-05-13T02:28:28.762Z,9.60
2019-05-13T02:30:59.021Z,9.60
2019-05-13T02:33:29.098Z,9.60
2019-05-13T02:36:02.601Z,9.50
2019-05-13T02:38:35.169Z,9.50
2019-05-13T02:41:03.942Z,9.50
2019-05-13T02:43:34.318Z,9.50
2019-05-13T02:46:04.842Z,9.40
2019-05-13T02:48:34.954Z,9.40
2019-05-13T02:51:05.196Z,9.40
2019-05-13T02:53:35.394Z,9.40
2019-05-13T02:56:05.646Z,9.40
2019-05-13T02:58:35.818Z,9.30
2019-05-13T03:01:06.148Z,9.30
2019-05-13T03:03:36.302Z,9.30
2019-05-13T03:06:06.552Z,9.30
2019-05-13T03:08:46.163Z,9.30
2019-05-13T03:11:12.375Z,9.40
2019-05-13T03:13:42.614Z,9.40
2019-05-13T03:16:14.549Z,9.40
2019-05-13T03:18:44.787Z,9.40
2019-05-13T03:21:15.150Z,9.40
2019-05-13T03:23:45.406Z,9.40
2019-05-13T03:26:15.634Z,9.40
2019-05-13T03:28:46.140Z,9.30
2019-05-13T03:31:17.717Z,9.30
2019-05-13T03:33:48.349Z,9.30
2019-05-13T03:36:18.848Z,9.30
2019-05-13T03:39:01.887Z,9.40
2019-05-13T03:41:22.811Z,9.30
2019-05-13T03:43:56.239Z,9.30
2019-05-13T03:46:33.001Z,9.30
2019-05-13T03:49:03.326Z,9.30
2019-05-13T03:51:33.628Z,9.30
2019-05-13T03:54:03.860Z,9.40
2019-05-13T03:56:34.284Z,9.40
2019-05-13T03:59:04.644Z,9.40
2019-05-13T04:01:35.007Z,9.40
2019-05-13T04:04:05.387Z,9.40
2019-05-13T04:06:35.566Z,9.50
2019-05-13T04:09:22.464Z,9.40
2019-05-13T04:11:42.346Z,9.40
2019-05-13T04:14:12.597Z,9.40
2019-05-13T04:16:43.105Z,9.40
2019-05-13T04:19:13.495Z,9.40
2019-05-13T04:21:44.015Z,9.50
2019-05-13T04:24:14.278Z,9.50
2019-05-13T04:26:44.807Z,9.60
2019-05-13T04:29:15.021Z,9.60
2019-05-13T04:31:45.411Z,9.70
2019-05-13T04:34:16.067Z,9.80
2019-05-13T04:36:46.285Z,9.80
2019-05-13T04:39:34.143Z,9.80
2019-05-13T04:41:48.446Z,9.90
2019-05-13T04:44:19.025Z,10.00
2019-05-13T04:46:52.257Z,10.10
2019-05-13T04:49:23.208Z,10.20
2019-05-13T04:51:53.249Z,10.20
2019-05-13T04:54:23.466Z,10.20
2019-05-13T04:56:53.685Z,10.30
2019-05-13T04:59:23.967Z,10.30
2019-05-13T05:02:13.323Z,10.30
2019-05-13T05:04:46.668Z,10.40
2019-05-13T05:07:44.646Z,10.50
2019-05-13T05:10:38.655Z,10.50
2019-05-13T05:13:09.005Z,10.50
2019-05-13T05:15:54.205Z,10.60
2019-05-13T05:18:33.045Z,10.70
2019-05-13T05:21:27.265Z,10.70
2019-05-13T05:24:15.285Z,10.80
2019-05-13T05:26:52.227Z,10.90
2019-05-13T05:29:44.525Z,11.00
2019-05-13T05:32:42.196Z,11.00
2019-05-13T05:35:45.445Z,11.10
2019-05-13T05:38:37.737Z,11.10
2019-05-13T05:41:12.096Z,11.20
2019-05-13T05:43:45.314Z,11.40
2019-05-13T05:46:15.525Z,11.30
2019-05-13T05:48:49.983Z,11.40
2019-05-13T05:51:22.245Z,11.40
2019-05-13T05:53:53.185Z,11.40
2019-05-13T05:56:24.045Z,11.40
2019-05-13T05:58:55.245Z,11.50
2019-05-13T06:01:25.824Z,11.70
2019-05-13T06:03:58.764Z,11.60
2019-05-13T06:06:32.742Z,11.70
2019-05-13T06:09:01.991Z,11.80
2019-05-13T06:11:34.625Z,11.90
2019-05-13T06:14:05.085Z,12.00
2019-05-13T06:16:35.369Z,12.00
2019-05-13T06:19:05.625Z,12.10
2019-05-13T06:21:36.965Z,12.20
2019-05-13T06:24:07.287Z,12.20
2019-05-13T06:26:38.645Z,12.10
2019-05-13T06:29:08.777Z,12.20
2019-05-13T06:31:41.721Z,12.20
2019-05-13T06:34:12.626Z,12.30
2019-05-13T06:36:42.519Z,12.30
2019-05-13T06:39:12.867Z,12.30
2019-05-13T06:41:43.088Z,12.30
2019-05-13T06:44:13.326Z,12.30
2019-05-13T06:46:43.378Z,12.40
2019-05-13T06:49:13.782Z,12.50
2019-05-13T06:51:43.925Z,12.60
2019-05-13T06:54:14.008Z,12.60
2019-05-13T06:56:44.206Z,12.70
2019-05-13T06:59:14.306Z,12.80
2019-05-13T07:01:44.499Z,12.70
2019-05-13T07:04:14.705Z,12.70
2019-05-13T07:06:45.205Z,12.70
2019-05-13T07:09:15.405Z,12.80
2019-05-13T07:11:45.671Z,12.80
2019-05-13T07:14:15.910Z,12.80
2019-05-13T07:16:47.265Z,12.90
2019-05-13T07:19:17.406Z,12.90
2019-05-13T07:21:47.705Z,12.90
2019-05-13T07:24:21.415Z,12.90
2019-05-13T07:26:52.323Z,12.90
2019-05-13T07:29:24.221Z,12.90
2019-05-13T07:31:54.585Z,13.10
2019-05-13T07:34:24.987Z,13.20
2019-05-13T07:36:55.366Z,13.20
2019-05-13T07:39:25.946Z,13.30
2019-05-13T07:41:56.108Z,13.40
2019-05-13T07:44:26.486Z,13.30
2019-05-13T07:46:56.786Z,13.40
2019-05-13T07:49:27.010Z,13.40
2019-05-13T07:51:57.285Z,13.40
2019-05-13T07:54:27.586Z,13.50
2019-05-13T07:56:57.969Z,13.70
2019-05-13T07:59:28.245Z,13.70
2019-05-13T08:01:58.506Z,13.70
2019-05-13T08:04:28.691Z,13.70
2019-05-13T08:07:01.585Z,13.70
2019-05-13T08:09:32.392Z,14.10
2019-05-13T08:12:09.852Z,14.00
2019-05-13T08:14:35.383Z,14.00
2019-05-13T08:17:06.025Z,14.00
2019-05-13T08:19:36.986Z,14.20
2019-05-13T08:22:08.485Z,14.30
2019-05-13T08:24:38.606Z,14.30
2019-05-13T08:27:08.858Z,14.30
2019-05-13T08:29:41.906Z,14.50
2019-05-13T08:32:11.353Z,14.60
2019-05-13T08:34:42.585Z,14.90
2019-05-13T08:37:12.818Z,14.90
2019-05-13T08:39:42.987Z,15.10
2019-05-13T08:42:19.001Z,15.20
2019-05-13T08:44:44.708Z,15.00
2019-05-13T08:47:14.842Z,15.20
2019-05-13T08:49:45.046Z,15.10
2019-05-13T08:52:15.319Z,15.20
2019-05-13T08:54:45.566Z,15.50
2019-05-13T08:57:15.745Z,15.60
2019-05-13T08:59:45.905Z,15.50
2019-05-13T09:02:16.105Z,15.50
2019-05-13T09:04:46.365Z,15.90
2019-05-13T09:07:17.199Z,15.80
2019-05-13T09:09:47.505Z,15.80
2019-05-13T09:12:31.537Z,15.80
2019-05-13T09:14:52.203Z,16.10
2019-05-13T09:17:21.435Z,16.30
2019-05-13T09:19:52.101Z,16.20
2019-05-13T09:22:22.605Z,16.20
2019-05-13T09:24:53.132Z,16.10
2019-05-13T09:27:24.505Z,16.00
2019-05-13T09:29:54.706Z,16.00
2019-05-13T09:32:26.600Z,16.10
2019-05-13T09:34:56.805Z,15.90
2019-05-13T09:37:27.046Z,15.90
2019-05-13T09:39:57.407Z,15.90
2019-05-13T09:42:27.505Z,15.90
2019-05-13T09:44:57.765Z,16.00
2019-05-13T09:47:28.537Z,16.00
2019-05-13T09:49:58.825Z,16.00
2019-05-13T09:56:51.858Z,16.10
2019-05-13T10:11:06.385Z,16.60
2019-05-13T10:13:40.025Z,17.10
2019-05-13T10:16:12.541Z,16.90
2019-05-13T10:18:42.905Z,16.80
2019-05-13T10:24:12.329Z,16.80
2019-05-13T10:26:42.912Z,17.00
2019-05-13T10:29:13.619Z,17.30
2019-05-13T10:31:44.785Z,17.50
2019-05-13T10:34:16.124Z,17.50
2019-05-13T10:36:46.838Z,17.70
2019-05-13T10:39:17.124Z,17.70
2019-05-13T10:41:47.402Z,18.10
2019-05-13T10:44:17.471Z,18.00
2019-05-13T10:46:47.636Z,18.10
2019-05-13T10:49:17.705Z,17.70
2019-05-13T10:51:48.216Z,17.30
2019-05-13T10:54:18.417Z,17.60
2019-05-13T10:56:48.651Z,17.60
2019-05-13T10:59:18.694Z,17.70
2019-05-13T11:01:48.932Z,17.90
2019-05-13T11:04:21.787Z,18.10
2019-05-13T11:06:52.391Z,18.10
2019-05-13T11:09:22.991Z,18.50
2019-05-13T11:11:53.223Z,18.60
2019-05-13T11:14:23.492Z,18.50
2019-05-13T11:16:53.591Z,18.60
2019-05-13T11:19:23.722Z,18.70
2019-05-13T11:21:53.791Z,18.90
2019-05-13T11:24:23.984Z,18.90
2019-05-13T11:26:54.158Z,18.90
2019-05-13T11:29:24.283Z,19.00
2019-05-13T11:31:54.390Z,19.10
2019-05-13T11:34:24.598Z,19.30
2019-05-13T11:36:54.662Z,19.50
2019-05-13T11:39:24.783Z,19.40
2019-05-13T11:41:54.823Z,19.40
2019-05-13T11:44:24.943Z,19.40
2019-05-13T11:46:55.206Z,19.50
2019-05-13T11:49:25.549Z,19.30
2019-05-13T11:51:55.801Z,18.90
2019-05-13T11:54:26.100Z,18.70
2019-05-13T11:57:05.516Z,18.70
2019-05-13T11:59:27.992Z,19.00
2019-05-13T12:01:58.024Z,19.00
2019-05-13T12:04:28.264Z,19.10
2019-05-13T12:06:58.324Z,19.20
2019-05-13T12:09:28.531Z,18.80
2019-05-13T12:11:58.651Z,19.10
2019-05-13T12:15:05.082Z,19.10
2019-05-13T12:17:02.275Z,19.20
2019-05-13T12:19:32.059Z,19.20
2019-05-13T12:22:02.935Z,19.10
2019-05-13T12:24:33.469Z,19.10
2019-05-13T12:27:04.063Z,19.30
2019-05-13T12:29:34.333Z,19.30
2019-05-13T12:32:04.635Z,19.20
2019-05-13T12:34:40.435Z,19.00
2019-05-13T12:37:06.740Z,18.80
2019-05-13T12:39:36.955Z,19.00
2019-05-13T12:42:07.036Z,19.20
2019-05-13T12:44:59.321Z,19.00
2019-05-13T12:47:11.402Z,19.00
2019-05-13T12:49:43.848Z,19.00
2019-05-13T12:52:12.997Z,19.20
2019-05-13T12:54:43.993Z,19.20
2019-05-13T12:57:16.453Z,19.20
2019-05-13T12:59:46.595Z,19.20
2019-05-13T13:02:17.855Z,18.90
2019-05-13T13:05:09.381Z,18.60
2019-05-13T13:07:22.126Z,18.50
2019-05-13T13:09:53.538Z,18.80
2019-05-13T13:12:33.809Z,18.90
2019-05-13T13:14:55.949Z,19.10
2019-05-13T13:17:26.148Z,19.00
2019-05-13T13:20:04.694Z,18.90
2019-05-13T13:22:31.423Z,18.80
2019-05-13T13:25:05.048Z,18.80
2019-05-13T13:27:59.901Z,18.70
2019-05-13T13:30:09.665Z,18.70
2019-05-13T13:32:44.018Z,18.70
2019-05-13T13:35:14.729Z,18.60
2019-05-13T13:37:46.021Z,18.70
2019-05-13T13:40:24.496Z,18.50
2019-05-13T13:42:47.616Z,18.80
2019-05-13T13:45:17.898Z,18.50
2019-05-13T13:48:01.988Z,18.40
2019-05-13T13:50:23.648Z,18.40
2019-05-13T13:52:52.772Z,18.30
2019-05-13T13:55:25.837Z,18.30
2019-05-13T13:57:56.926Z,18.20
2019-05-13T14:00:40.764Z,18.30
2019-05-13T14:03:06.040Z,18.30
2019-05-13T14:05:36.267Z,18.10
2019-05-13T14:08:03.212Z,17.90
2019-05-13T14:10:34.752Z,17.80
2019-05-13T14:13:06.992Z,17.60
2019-05-13T14:15:37.155Z,17.60
2019-05-13T14:18:07.472Z,17.50
2019-05-13T14:20:38.203Z,17.20
2019-05-13T14:23:12.436Z,17.10
2019-05-13T14:25:42.732Z,16.90
2019-05-13T14:28:17.663Z,16.90
2019-05-13T14:30:46.912Z,16.80
2019-05-13T14:33:18.752Z,16.70
2019-05-13T14:35:52.951Z,16.80
2019-05-13T14:38:32.793Z,16.80
2019-05-13T14:41:03.671Z,17.00
2019-05-13T14:46:43.150Z,17.20
2019-05-13T14:49:04.571Z,17.30
2019-05-13T14:51:35.582Z,17.30
2019-05-13T14:54:06.051Z,17.40
2019-05-13T14:56:38.672Z,17.30
2019-05-13T14:59:11.720Z,17.10
2019-05-13T15:01:42.420Z,17.10
2019-05-13T15:04:12.699Z,17.00
2019-05-13T15:06:52.234Z,17.10
2019-05-13T15:09:22.585Z,17.10
2019-05-13T15:11:53.069Z,17.10
2019-05-13T15:14:24.329Z,16.50
2019-05-13T15:17:03.134Z,16.30
2019-05-13T15:19:27.554Z,16.00
2019-05-13T15:21:57.729Z,16.00
2019-05-13T15:24:28.395Z,16.10
2019-05-13T15:26:58.733Z,15.80
2019-05-13T15:29:31.300Z,15.70
2019-05-13T15:32:03.399Z,15.40
2019-05-13T15:34:33.781Z,15.30
2019-05-13T15:37:04.319Z,15.30
2019-05-13T15:39:35.232Z,15.20
2019-05-13T15:42:21.443Z,15.20
2019-05-13T15:44:53.396Z,15.10
2019-05-13T15:47:26.746Z,15.20
2019-05-13T15:49:55.715Z,15.10
2019-05-13T15:52:25.862Z,15.00
2019-05-13T15:54:56.005Z,14.90
2019-05-13T15:57:26.129Z,15.00
2019-05-13T15:59:56.421Z,15.00
2019-05-13T16:02:26.429Z,15.00
2019-05-13T16:05:01.262Z,14.90
2019-05-13T16:07:28.186Z,14.70
2019-05-13T16:09:58.779Z,14.70
2019-05-13T16:12:28.782Z,14.70
2019-05-13T16:15:02.073Z,14.70
2019-05-13T16:17:41.285Z,14.50
2019-05-13T16:20:03.596Z,14.30
2019-05-13T16:22:33.873Z,14.10
2019-05-13T16:25:05.978Z,14.20
2019-05-13T16:27:36.047Z,14.30
2019-05-13T16:30:06.941Z,14.40
2019-05-13T16:32:37.200Z,14.20
2019-05-13T16:35:08.272Z,14.20
2019-05-13T16:37:38.310Z,14.20
2019-05-13T16:40:11.648Z,13.80
2019-05-13T16:42:42.191Z,13.70
2019-05-13T16:45:12.822Z,13.80
2019-05-13T16:47:56.567Z,13.70
2019-05-13T16:50:16.023Z,13.50
2019-05-13T16:52:46.320Z,13.30
2019-05-13T16:55:16.864Z,13.30
2019-05-13T16:57:46.990Z,13.30
2019-05-13T17:00:17.822Z,13.40
2019-05-13T17:02:47.991Z,13.20
2019-05-13T17:05:18.231Z,13.10
2019-05-13T17:07:48.277Z,12.90
2019-05-13T17:10:18.629Z,12.70
2019-05-13T17:12:48.800Z,12.80
2019-05-13T17:15:21.130Z,12.80
2019-05-13T17:17:51.521Z,12.80
2019-05-13T17:20:23.072Z,12.60
2019-05-13T17:22:56.563Z,12.70
2019-05-13T17:25:27.306Z,12.50
2019-05-13T17:27:57.427Z,12.60
2019-05-13T17:30:27.583Z,12.10
2019-05-13T17:32:57.804Z,12.20
2019-05-13T17:35:31.178Z,12.20
2019-05-13T17:38:01.953Z,12.40
2019-05-13T17:40:32.187Z,12.30
2019-05-13T17:43:02.440Z,12.20
2019-05-13T17:45:32.413Z,12.20
2019-05-13T17:48:02.449Z,12.30
2019-05-13T17:50:32.596Z,12.20
2019-05-13T17:53:02.831Z,11.80
2019-05-13T17:55:33.070Z,11.60
2019-05-13T17:58:03.326Z,11.60
2019-05-13T18:00:33.628Z,11.30
2019-05-13T18:03:04.027Z,11.40
2019-05-13T18:05:34.211Z,11.40
2019-05-13T18:08:04.357Z,11.30
2019-05-13T18:10:34.456Z,11.40
2019-05-13T18:13:04.648Z,11.50
2019-05-13T18:15:34.834Z,11.10
2019-05-13T18:18:05.024Z,11.10
2019-05-13T18:20:35.359Z,10.90
2019-05-13T18:23:05.717Z,10.90
2019-05-13T18:25:35.851Z,10.80
2019-05-13T18:28:06.007Z,10.70
2019-05-13T18:30:36.231Z,10.80
2019-05-13T18:33:06.452Z,10.90
2019-05-13T18:35:36.681Z,10.80
2019-05-13T18:38:06.891Z,11.00
2019-05-13T18:40:36.962Z,11.00
2019-05-13T18:43:07.199Z,11.30
2019-05-13T18:45:37.256Z,11.10
2019-05-13T18:48:07.490Z,10.90
2019-05-13T18:50:37.540Z,10.60
2019-05-13T18:53:07.610Z,10.50
2019-05-13T18:55:38.439Z,10.40
2019-05-13T18:58:08.520Z,10.60
2019-05-13T19:00:38.758Z,10.50
2019-05-13T19:03:08.889Z,10.40
2019-05-13T19:05:39.111Z,10.50
2019-05-13T19:08:09.219Z,10.40
2019-05-13T19:10:41.369Z,10.40
2019-05-13T19:13:12.477Z,10.30
2019-05-13T19:15:42.734Z,10.40
2019-05-13T19:18:12.830Z,10.30
2019-05-13T19:20:42.881Z,10.40
2019-05-13T19:23:13.174Z,10.40
2019-05-13T19:25:43.219Z,10.30
2019-05-13T19:28:13.659Z,10.40
2019-05-13T19:30:43.681Z,10.30
2019-05-13T19:33:13.823Z,10.30
2019-05-13T19:35:43.966Z,10.20
2019-05-13T19:38:14.279Z,10.30
2019-05-13T19:40:44.352Z,10.20
2019-05-13T19:43:14.607Z,10.20
2019-05-13T19:45:44.781Z,10.00
2019-05-13T19:48:14.933Z,9.80
2019-05-13T19:50:45.219Z,9.90
2019-05-13T19:53:15.563Z,9.80
2019-05-13T19:55:45.760Z,10.00
2019-05-13T19:58:16.292Z,9.90
2019-05-13T20:00:46.620Z,9.80
2019-05-13T20:03:17.007Z,9.70
2019-05-13T20:05:47.209Z,9.60
2019-05-13T20:08:17.361Z,9.70
2019-05-13T20:10:47.542Z,9.80
2019-05-13T20:13:17.762Z,9.70
2019-05-13T20:15:48.131Z,9.50
2019-05-13T20:18:19.399Z,9.40
2019-05-13T20:20:51.714Z,9.30
2019-05-13T20:23:21.399Z,9.20
2019-05-13T20:25:54.215Z,9.10
2019-05-13T20:28:24.249Z,9.00
2019-05-13T20:30:54.527Z,8.80
2019-05-13T20:33:24.852Z,8.90
2019-05-13T20:35:55.211Z,8.70
2019-05-13T20:38:25.387Z,8.90
2019-05-13T20:40:55.545Z,9.00
2019-05-13T20:43:25.579Z,8.90
2019-05-13T20:45:55.791Z,8.70
2019-05-13T20:48:26.133Z,8.70
2019-05-13T20:50:56.328Z,8.70
2019-05-13T20:53:28.027Z,8.60
2019-05-13T20:55:58.303Z,8.70
2019-05-13T20:58:28.666Z,8.60
2019-05-13T21:00:59.001Z,8.60
2019-05-13T21:03:31.411Z,8.70
2019-05-13T21:06:01.139Z,8.70
2019-05-13T21:08:32.161Z,8.70
2019-05-13T21:11:03.511Z,8.80
2019-05-13T21:13:33.887Z,8.80
2019-05-13T21:16:03.971Z,8.70
2019-05-13T21:18:34.331Z,8.80
2019-05-13T21:21:04.419Z,8.70
2019-05-13T21:23:34.747Z,8.80
2019-05-13T21:26:05.020Z,8.90
2019-05-13T21:28:35.176Z,8.80
2019-05-13T21:31:05.448Z,8.70
2019-05-13T21:33:35.614Z,8.90
2019-05-13T21:36:05.942Z,8.80
2019-05-13T21:38:36.996Z,8.70
2019-05-13T21:41:07.427Z,8.50
2019-05-13T21:43:37.602Z,8.50
2019-05-13T21:46:07.780Z,8.60
2019-05-13T21:48:37.922Z,8.60
2019-05-13T21:51:08.142Z,8.60
2019-05-13T21:53:38.403Z,8.50
2019-05-13T21:56:08.719Z,8.30
2019-05-13T21:58:38.960Z,8.40
2019-05-13T22:01:09.280Z,8.30
2019-05-13T22:03:41.478Z,8.40
2019-05-13T22:06:11.182Z,8.30
2019-05-13T22:08:41.402Z,8.20
2019-05-13T22:11:12.039Z,8.10
2019-05-13T22:13:42.434Z,8.10
2019-05-13T22:16:12.651Z,8.10
2019-05-13T22:18:43.062Z,7.90
2019-05-13T22:21:13.379Z,7.80
2019-05-13T22:23:43.514Z,8.00
2019-05-13T22:26:13.606Z,8.00
2019-05-13T22:28:43.787Z,7.90
2019-05-13T22:31:14.019Z,7.90
2019-05-13T22:33:45.251Z,7.80
2019-05-13T22:36:17.534Z,7.80
2019-05-13T22:38:47.700Z,7.80
2019-05-13T22:41:17.834Z,7.90
2019-05-13T22:43:55.690Z,8.10
2019-05-13T22:46:21.353Z,7.90
2019-05-13T22:48:51.540Z,7.80
2019-05-13T22:51:21.727Z,7.60
2019-05-13T22:53:52.162Z,7.80
2019-05-13T22:56:22.449Z,7.80
2019-05-13T22:58:53.534Z,7.90
2019-05-13T23:01:23.771Z,7.90
2019-05-13T23:03:53.867Z,7.90
2019-05-13T23:06:24.191Z,7.80
2019-05-13T23:08:54.387Z,7.70
2019-05-13T23:11:24.547Z,7.70
2019-05-13T23:14:06.520Z,7.70
2019-05-13T23:16:26.280Z,7.60
2019-05-13T23:18:56.346Z,7.50
2019-05-13T23:21:26.655Z,7.60
2019-05-13T23:23:56.772Z,7.50
2019-05-13T23:26:27.117Z,7.50
2019-05-13T23:28:58.211Z,7.50
2019-05-13T23:31:28.494Z,7.50
2019-05-13T23:33:58.573Z,7.50
2019-05-13T23:36:28.845Z,7.50
2019-05-13T23:39:00.947Z,7.30
2019-05-13T23:41:30.709Z,7.40
2019-05-13T23:44:01.425Z,7.50
2019-05-13T23:46:32.107Z,7.50
2019-05-13T23:49:02.277Z,7.60
2019-05-13T23:51:32.700Z,7.60
2019-05-13T23:54:02.996Z,7.50
2019-05-13T23:56:33.320Z,7.30
2019-05-13T23:59:03.543Z,7.40
